Time;durP1;ratioP1;P1;durP2;ratioP2;P2;SDS_P1;SDS_P2;PMS_P1;PMS_P2;Temp;Humidity;BMP_temperature;BMP_pressure;BME280_temperature;BME280_humidity;BME280_pressure;Samples;Min_cycle;Max_cycle;Signal;HPM_P1;HPM_P2
2024/01/24 00:00:54;;;;;;;11.65;3.20;;;;;;;3.98;100.00;101010.50;7394043;19;20011;-65
2024/01/24 00:03:22;;;;;;;11.50;3.15;;;;;;;4.00;100.00;101011.38;7394244;19;20085;-65
2024/01/24 00:05:51;;;;;;;15.73;3.55;;;;;;;4.00;100.00;100993.19;7393875;19;20023;-66
2024/01/24 00:08:19;;;;;;;16.42;3.33;;;;;;;4.00;100.00;100985.41;7395930;19;20003;-66
2024/01/24 00:10:48;;;;;;;14.35;3.33;;;;;;;4.01;100.00;100963.78;7395299;19;20473;-65
2024/01/24 00:13:16;;;;;;;16.08;3.33;;;;;;;4.01;100.00;100948.19;7394615;19;20082;-66
2024/01/24 00:15:45;;;;;;;11.88;3.83;;;;;;;4.03;100.00;100943.00;7395661;19;20081;-66
2024/01/24 00:18:16;;;;;;;14.57;3.15;;;;;;;4.04;100.00;100936.97;7395657;19;20010;-66
2024/01/24 00:20:45;;;;;;;15.75;3.38;;;;;;;4.05;100.00;100925.72;7395665;19;20035;-65
2024/01/24 00:23:19;;;;;;;11.27;4.13;;;;;;;4.06;100.00;100920.53;7392917;19;20074;-66
2024/01/24 00:25:48;;;;;;;11.00;2.67;;;;;;;4.08;100.00;100895.47;7394965;19;20011;-66
2024/01/24 00:28:18;;;;;;;10.52;3.13;;;;;;;4.11;100.00;100885.94;7395329;19;20031;-66
2024/01/24 00:30:47;;;;;;;12.82;2.53;;;;;;;4.13;100.00;100873.84;7395640;19;20011;-66
2024/01/24 00:33:18;;;;;;;15.27;3.00;;;;;;;4.15;100.00;100885.13;7394466;19;20027;-66
2024/01/24 00:35:47;;;;;;;12.32;3.28;;;;;;;4.18;100.00;100874.75;7395625;19;20031;-65
2024/01/24 00:38:15;;;;;;;16.38;3.28;;;;;;;4.20;100.00;100831.50;7394707;19;20380;-66
2024/01/24 00:40:43;;;;;;;10.10;2.70;;;;;;;4.22;100.00;100856.63;7394985;19;20022;-65
2024/01/24 00:43:12;;;;;;;9.35;2.50;;;;;;;4.26;100.00;100864.41;7395424;19;20010;-66
2024/01/24 00:45:40;;;;;;;12.52;2.97;;;;;;;4.28;100.00;100849.72;7402051;19;20380;-66
2024/01/24 00:48:18;;;;;;;8.23;2.33;;;;;;;4.30;100.00;100848.00;7399530;19;20014;-66
2024/01/24 00:50:49;;;;;;;5.95;2.10;;;;;;;4.31;100.00;100819.44;7399150;19;20020;-66
2024/01/24 00:53:21;;;;;;;9.25;2.17;;;;;;;4.32;100.00;100795.19;7399589;19;20006;-66
2024/01/24 00:55:49;;;;;;;4.25;1.95;;;;;;;4.35;100.00;100791.75;7402331;19;20010;-66
2024/01/24 00:58:19;;;;;;;10.07;2.40;;;;;;;4.39;100.00;100789.16;7402064;19;20011;-66
2024/01/24 01:00:47;;;;;;;11.70;2.42;;;;;;;4.37;100.00;100754.53;7398834;19;20010;-66
2024/01/24 01:03:16;;;;;;;8.02;2.10;;;;;;;4.43;100.00;100766.66;7400680;19;20023;-66
2024/01/24 01:05:44;;;;;;;6.28;2.22;;;;;;;4.45;100.00;100762.34;7401492;19;20014;-66
2024/01/24 01:08:16;;;;;;;4.95;2.05;;;;;;;4.48;100.00;100740.72;7401962;19;20085;-66
2024/01/24 01:10:44;;;;;;;5.72;1.70;;;;;;;4.50;100.00;100739.84;7398735;19;20003;-66
2024/01/24 01:13:13;;;;;;;7.68;1.95;;;;;;;4.53;100.00;100741.59;7398863;19;20014;-66
2024/01/24 01:15:41;;;;;;;4.65;2.05;;;;;;;4.55;100.00;100721.69;7401291;19;20028;-66
2024/01/24 01:18:10;;;;;;;9.45;1.90;;;;;;;4.57;100.00;100712.13;7401637;19;20019;-66
2024/01/24 01:20:38;;;;;;;5.68;2.08;;;;;;;4.59;100.00;100720.81;7398469;19;20010;-66
2024/01/24 01:23:07;;;;;;;6.05;1.90;;;;;;;4.62;100.00;100714.75;7398959;19;20489;-66
2024/01/24 01:25:38;;;;;;;5.78;1.92;;;;;;;4.64;100.00;100689.63;7398784;19;20015;-66
2024/01/24 01:28:07;;;;;;;3.53;1.50;;;;;;;4.65;100.00;100702.66;7398756;19;20374;-66
2024/01/24 01:30:36;;;;;;;5.45;1.77;;;;;;;4.68;100.00;100693.97;7401206;19;20022;-66
2024/01/24 01:33:05;;;;;;;7.00;2.00;;;;;;;4.69;100.00;100682.72;7400239;19;20070;-66
2024/01/24 01:35:35;;;;;;;5.65;1.60;;;;;;;4.70;100.00;100676.63;7401102;19;20432;-66
2024/01/24 01:38:04;;;;;;;5.72;1.58;;;;;;;4.71;100.00;100681.88;7401102;19;20473;-66
2024/01/24 01:40:32;;;;;;;5.65;1.40;;;;;;;4.74;100.00;100673.22;7400764;19;20006;-66
2024/01/24 01:43:03;;;;;;;3.65;1.30;;;;;;;4.75;100.00;100661.91;7397978;19;20031;-66
2024/01/24 01:45:32;;;;;;;3.58;1.42;;;;;;;4.77;100.00;100657.59;7398340;19;20018;-66
2024/01/24 01:48:00;;;;;;;5.50;1.30;;;;;;;4.78;100.00;100627.25;7397902;19;20018;-66
2024/01/24 01:50:29;;;;;;;4.45;1.50;;;;;;;4.78;100.00;100620.34;7400013;19;20091;-66
2024/01/24 01:52:57;;;;;;;3.03;1.55;;;;;;;4.80;100.00;100616.03;7399105;19;20019;-66
2024/01/24 01:55:26;;;;;;;2.38;0.98;;;;;;;4.80;100.00;100604.75;7399412;19;20077;-66
2024/01/24 01:57:56;;;;;;;2.15;0.93;;;;;;;4.82;100.00;100629.03;7400170;19;20015;-66
2024/01/24 02:00:28;;;;;;;4.72;1.30;;;;;;;4.84;100.00;100624.66;7400470;19;20031;-66
2024/01/24 02:02:57;;;;;;;4.43;1.50;;;;;;;4.86;100.00;100605.59;7399161;19;20513;-66
2024/01/24 02:05:26;;;;;;;4.70;1.20;;;;;;;4.89;100.00;100602.13;7397368;19;20010;-66
2024/01/24 02:07:54;;;;;;;3.88;1.02;;;;;;;4.92;100.00;100609.09;7397073;19;20472;-66
2024/01/24 02:10:23;;;;;;;1.65;0.90;;;;;;;4.94;100.00;100587.41;7399716;19;20031;-66
2024/01/24 02:12:51;;;;;;;3.47;1.15;;;;;;;4.97;100.00;100578.75;7397196;19;20052;-66
2024/01/24 02:15:20;;;;;;;2.95;1.13;;;;;;;5.00;100.00;100556.19;7399508;19;20010;-66
2024/01/24 02:17:51;;;;;;;4.93;1.10;;;;;;;5.03;100.00;100542.31;7399055;19;20023;-66
2024/01/24 02:20:20;;;;;;;4.88;1.10;;;;;;;5.05;100.00;100544.06;7399055;19;20010;-66
2024/01/24 02:22:49;;;;;;;2.78;1.10;;;;;;;5.09;100.00;100546.66;7396453;19;20015;-66
2024/01/24 02:25:20;;;;;;;3.50;1.20;;;;;;;5.11;100.00;100544.91;7396866;19;20018;-66
2024/01/24 02:27:48;;;;;;;2.83;1.20;;;;;;;5.15;100.00;100552.69;7399562;19;20015;-66
2024/01/24 02:30:17;;;;;;;2.70;1.20;;;;;;;5.19;100.00;100536.22;7398705;19;20583;-66
2024/01/24 02:32:46;;;;;;;1.75;1.00;;;;;;;5.22;100.00;100535.34;7398535;19;20019;-66
2024/01/24 02:35:14;;;;;;;4.60;1.10;;;;;;;5.26;100.00;100528.38;7398909;19;20032;-66
2024/01/24 02:37:43;;;;;;;3.03;1.50;;;;;;;5.29;100.00;100544.84;7398791;19;20433;-67
2024/01/24 02:40:11;;;;;;;4.35;1.55;;;;;;;5.32;100.00;100518.84;7398709;19;20023;-67
2024/01/24 02:42:42;;;;;;;3.53;1.30;;;;;;;5.35;100.00;100511.00;7397836;19;20380;-66
2024/01/24 02:45:11;;;;;;;2.03;1.10;;;;;;;5.38;100.00;100507.53;7397618;19;20014;-66
2024/01/24 02:47:40;;;;;;;3.47;1.63;;;;;;;5.41;100.00;100507.53;7398087;19;20019;-67
2024/01/24 02:50:09;;;;;;;3.90;1.27;;;;;;;5.46;100.00;100502.28;7396397;19;20024;-66
2024/01/24 02:52:38;;;;;;;2.13;1.48;;;;;;;5.50;100.00;100493.63;7397963;19;20011;-66
2024/01/24 02:55:07;;;;;;;4.40;1.90;;;;;;;5.52;100.00;100481.44;7398257;19;20038;-66
2024/01/24 02:57:36;;;;;;;2.85;1.10;;;;;;;5.55;100.00;100469.28;7398120;19;20014;-66
2024/01/24 03:00:09;;;;;;;4.20;1.67;;;;;;;5.61;100.00;100471.00;7398080;19;20024;-66
2024/01/24 03:02:38;;;;;;;2.47;1.38;;;;;;;5.66;100.00;100456.22;7397147;19;20024;-66
2024/01/24 03:05:08;;;;;;;2.33;1.23;;;;;;;5.70;100.00;100459.69;7393566;19;20086;-66
2024/01/24 03:07:37;;;;;;;2.03;1.42;;;;;;;5.74;100.00;100469.19;7395690;19;20011;-68
2024/01/24 03:10:08;;;;;;;4.53;1.48;;;;;;;5.77;100.00;100476.97;7398332;19;20073;-67
2024/01/24 03:12:37;;;;;;;4.82;1.42;;;;;;;5.84;100.00;100462.19;7398129;19;20092;-66
2024/01/24 03:15:10;;;;;;;5.22;1.65;;;;;;;5.88;100.00;100466.50;7397130;19;20502;-66
2024/01/24 03:17:38;;;;;;;2.70;1.20;;;;;;;5.93;100.00;100467.31;7395628;19;20040;-66
2024/01/24 03:20:10;;;;;;;4.13;1.23;;;;;;;5.98;100.00;100438.66;7395336;19;20027;-66
2024/01/24 03:22:39;;;;;;;3.33;1.23;;;;;;;6.01;100.00;100433.44;7394437;19;20497;-66
2024/01/24 03:25:08;;;;;;;5.20;1.98;;;;;;;6.06;100.00;100426.47;7395397;19;20010;-66
2024/01/24 03:27:36;;;;;;;5.57;1.75;;;;;;;6.10;100.00;100422.94;7396853;19;20400;-66
2024/01/24 03:30:09;;;;;;;3.22;1.60;;;;;;;6.15;100.00;100425.50;7396695;19;20385;-66
2024/01/24 03:32:38;;;;;;;3.80;1.90;;;;;;;6.20;100.00;100421.13;7394829;19;20014;-66
2024/01/24 03:35:10;;;;;;;3.55;2.03;;;;;;;6.24;100.00;100432.38;7395191;19;20019;-66
2024/01/24 03:37:51;;;;;;;2.60;1.50;;;;;;;6.25;100.00;100406.31;7396552;19;20018;-66
2024/01/24 03:40:19;;;;;;;4.43;1.75;;;;;;;6.31;100.00;100426.25;7397042;19;20081;-66
2024/01/24 03:42:48;;;;;;;7.63;1.80;;;;;;;6.33;100.00;100441.00;7395829;19;20018;-66
2024/01/24 03:45:19;;;;;;;3.85;1.70;;;;;;;6.35;100.00;100436.63;7395108;19;20522;-66
2024/01/24 03:47:48;;;;;;;4.45;1.63;;;;;;;6.39;100.00;100426.19;7395958;19;20501;-66
2024/01/24 03:50:16;;;;;;;4.03;1.73;;;;;;;6.42;100.00;100436.56;7394719;19;20018;-66
2024/01/24 03:52:45;;;;;;;5.15;1.60;;;;;;;6.45;100.00;100418.31;7396571;19;20039;-66
2024/01/24 03:55:13;;;;;;;6.15;1.92;;;;;;;6.47;100.00;100401.78;7396392;19;20416;-66
2024/01/24 03:57:43;;;;;;;3.20;1.55;;;;;;;6.51;100.00;100408.66;7396255;19;20014;-66
2024/01/24 04:02:47;;;;;;;3.05;2.15;;;;;;;6.59;100.00;100402.53;7393551;19;20014;-66
2024/01/24 04:05:16;;;;;;;6.72;1.83;;;;;;;6.64;100.00;100396.34;7395152;19;20032;-66
2024/01/24 04:07:45;;;;;;;4.63;1.73;;;;;;;6.69;100.00;100399.78;7394046;19;20082;-66
2024/01/24 04:10:13;;;;;;;5.13;1.70;;;;;;;6.75;100.00;100391.03;7393692;19;20480;-66
2024/01/24 04:12:42;;;;;;;4.80;1.80;;;;;;;6.81;100.00;100382.25;7395064;19;20031;-66
2024/01/24 04:15:11;;;;;;;6.72;2.33;;;;;;;6.87;100.00;100357.88;7395016;19;20475;-66
2024/01/24 04:17:40;;;;;;;4.30;1.75;;;;;;;6.94;100.00;100357.78;7395074;19;20021;-66
2024/01/24 04:20:12;;;;;;;8.68;2.22;;;;;;;7.03;100.00;100368.94;7395164;19;20509;-66
2024/01/24 04:22:40;;;;;;;4.20;1.75;;;;;;;7.10;100.00;100355.84;7392989;19;20027;-66
2024/01/24 04:25:10;;;;;;;6.43;2.20;;;;;;;7.19;100.00;100357.47;7394710;19;20019;-66
2024/01/24 04:27:38;;;;;;;8.07;2.10;;;;;;;7.32;100.00;100339.88;7395320;19;20014;-66
2024/01/24 04:30:08;;;;;;;7.65;1.98;;;;;;;7.43;100.00;100334.47;7395338;19;20011;-66
2024/01/24 04:32:37;;;;;;;5.10;2.17;;;;;;;7.53;100.00;100333.44;7394856;19;20022;-66
2024/01/24 04:35:06;;;;;;;3.78;1.70;;;;;;;7.61;100.00;100330.72;7393289;19;20037;-66
2024/01/24 04:37:37;;;;;;;7.07;1.70;;;;;;;7.70;100.00;100314.91;7393262;19;20019;-66
2024/01/24 04:40:07;;;;;;;5.32;1.60;;;;;;;7.80;100.00;100329.53;7393616;19;20018;-66
2024/01/24 04:42:35;;;;;;;3.95;1.45;;;;;;;7.89;100.00;100318.06;7394632;19;20028;-66
2024/01/24 04:45:04;;;;;;;6.28;1.65;;;;;;;7.95;100.00;100314.50;7393992;19;20018;-66
2024/01/24 04:47:32;;;;;;;2.65;1.38;;;;;;;7.99;100.00;100303.94;7392369;19;20469;-66
2024/01/24 04:50:01;;;;;;;4.35;1.50;;;;;;;8.05;100.00;100312.56;7394437;19;20036;-66
2024/01/24 04:52:29;;;;;;;4.43;1.60;;;;;;;8.10;100.00;100314.22;7393622;19;20508;-66
2024/01/24 04:55:00;;;;;;;2.55;1.20;;;;;;;8.17;100.00;100307.09;7392197;19;20018;-66
2024/01/24 04:57:29;;;;;;;5.18;1.90;;;;;;;8.23;100.00;100296.53;7394155;19;20554;-66
2024/01/24 04:59:57;;;;;;;4.65;1.40;;;;;;;8.28;100.00;100310.38;7393840;19;20074;-66
2024/01/24 05:02:26;;;;;;;2.45;1.67;;;;;;;8.33;100.00;100289.38;7393660;19;20387;-66
2024/01/24 05:04:54;;;;;;;2.13;1.10;;;;;;;8.36;100.00;100294.53;7394160;19;20070;-66
2024/01/24 05:07:22;;;;;;;6.25;1.52;;;;;;;8.42;100.00;100277.88;7394025;19;20366;-67
2024/01/24 05:09:51;;;;;;;5.07;1.20;;;;;;;8.44;100.00;100283.94;7391745;19;20078;-67
2024/01/24 05:12:22;;;;;;;4.38;1.38;;;;;;;8.50;100.00;100301.28;7394282;19;20019;-66
2024/01/24 05:14:51;;;;;;;2.88;1.20;;;;;;;8.53;100.00;100291.63;7392034;19;20031;-66
2024/01/24 05:17:20;;;;;;;5.65;1.23;;;;;;;8.58;100.00;100279.31;7393598;19;20014;-67
2024/01/24 05:19:48;;;;;;;2.55;1.00;;;;;;;8.64;100.00;100281.81;7391410;19;20461;-67
2024/01/24 05:22:17;;;;;;;2.42;0.90;;;;;;;8.70;100.00;100288.66;7393148;19;20032;-67
2024/01/24 05:24:46;;;;;;;4.25;1.15;;;;;;;8.75;100.00;100278.09;7393854;19;20015;-67
2024/01/24 05:27:15;;;;;;;4.03;1.10;;;;;;;8.81;100.00;100275.34;7393423;19;20015;-67
2024/01/24 05:29:47;;;;;;;3.72;1.55;;;;;;;8.87;100.00;100264.75;7397922;19;20412;-67
2024/01/24 05:32:16;;;;;;;1.48;0.80;;;;;;;8.93;100.00;100262.00;7400541;19;20491;-67
2024/01/24 05:34:44;;;;;;;4.03;1.35;;;;;;;8.98;100.00;100279.34;7400028;19;20429;-66
2024/01/24 05:37:13;;;;;;;2.78;1.20;;;;;;;9.01;100.00;100267.06;7400498;19;20014;-66
2024/01/24 05:39:42;;;;;;;4.15;1.65;;;;;;;9.05;100.00;100252.13;7400171;19;20031;-67
2024/01/24 05:42:10;;;;;;;6.57;1.20;;;;;;;9.08;100.00;100254.69;7400242;19;20007;-66
2024/01/24 05:44:39;;;;;;;4.07;1.30;;;;;;;9.09;100.00;100259.03;7397341;19;20020;-67
2024/01/24 05:47:10;;;;;;;2.40;1.10;;;;;;;9.09;100.00;100249.41;7397126;19;20064;-67
2024/01/24 05:49:39;;;;;;;3.45;1.35;;;;;;;9.11;100.00;100249.38;7397919;19;20070;-67
2024/01/24 05:52:08;;;;;;;2.67;1.20;;;;;;;9.12;100.00;100238.00;7398258;19;20023;-66
2024/01/24 05:54:37;;;;;;;4.80;1.25;;;;;;;9.13;100.00;100219.66;7396815;19;20019;-67
2024/01/24 05:57:05;;;;;;;1.83;0.85;;;;;;;9.13;100.00;100219.66;7397216;19;20011;-67
2024/01/24 05:59:34;;;;;;;1.92;1.00;;;;;;;9.13;100.00;100206.56;7399178;19;20027;-67
2024/01/24 06:02:02;;;;;;;3.75;1.00;;;;;;;9.18;100.00;100205.63;7398611;19;20018;-67
2024/01/24 06:04:33;;;;;;;2.08;1.15;;;;;;;9.23;100.00;100212.44;7396244;19;20022;-67
2024/01/24 06:07:02;;;;;;;2.75;1.20;;;;;;;9.27;100.00;100224.53;7396876;19;20074;-67
2024/01/24 06:09:31;;;;;;;4.90;1.15;;;;;;;9.32;100.00;100228.84;7399429;19;20018;-66
2024/01/24 06:12:01;;;;;;;2.45;0.82;;;;;;;9.32;100.00;100215.75;7399601;19;20536;-66
2024/01/24 06:14:29;;;;;;;1.60;0.80;;;;;;;9.36;100.00;100212.13;7396573;19;20018;-66
2024/01/24 06:16:58;;;;;;;5.30;1.13;;;;;;;9.38;100.00;100207.72;7398072;19;20018;-67
2024/01/24 06:19:26;;;;;;;2.70;0.77;;;;;;;9.40;100.00;100190.22;7396479;19;20003;-66
2024/01/24 06:21:57;;;;;;;3.33;1.13;;;;;;;9.44;100.00;100178.78;7399016;19;20011;-67
2024/01/24 06:24:26;;;;;;;1.05;0.75;;;;;;;9.50;100.00;100180.38;7396583;19;20044;-67
2024/01/24 06:26:54;;;;;;;1.98;0.88;;;;;;;9.54;100.00;100205.56;7395417;19;20007;-67
2024/01/24 06:29:23;;;;;;;3.13;1.40;;;;;;;9.61;100.00;100210.59;7398081;19;20477;-67
2024/01/24 06:31:51;;;;;;;1.52;0.65;;;;;;;9.64;100.00;100201.78;7398259;19;20023;-67
2024/01/24 06:34:20;;;;;;;2.38;0.73;;;;;;;9.70;100.00;100188.53;7395837;19;20019;-67
2024/01/24 06:36:49;;;;;;;1.60;0.63;;;;;;;9.75;100.00;100180.56;7396222;19;20019;-67
2024/01/24 06:39:20;;;;;;;3.90;0.70;;;;;;;9.81;100.00;100176.91;7397851;19;20023;-67
2024/01/24 06:41:48;;;;;;;2.03;0.77;;;;;;;9.85;100.00;100179.41;7398997;19;20024;-66
2024/01/24 06:44:17;;;;;;;1.23;0.70;;;;;;;9.89;100.00;100162.69;7396389;19;20031;-67
2024/01/24 06:46:45;;;;;;;0.75;0.50;;;;;;;9.93;100.00;100192.28;7396429;19;20477;-67
2024/01/24 06:49:14;;;;;;;2.03;0.90;;;;;;;9.94;100.00;100196.63;7398380;19;20007;-66
2024/01/24 06:51:42;;;;;;;1.67;0.63;;;;;;;9.97;100.00;100170.34;7398255;19;20074;-67
2024/01/24 06:54:12;;;;;;;1.25;0.80;;;;;;;10.01;100.00;100173.72;7396280;19;20473;-67
2024/01/24 06:56:43;;;;;;;1.35;0.65;;;;;;;10.03;100.00;100206.84;7398057;19;20029;-67
2024/01/24 06:59:12;;;;;;;3.15;0.68;;;;;;;10.06;100.00;100188.44;7397328;19;20010;-67
2024/01/24 07:01:41;;;;;;;1.30;0.43;;;;;;;10.07;100.00;100253.06;7398613;19;20070;-66
2024/01/24 07:04:09;;;;;;;1.77;0.75;;;;;;;10.10;100.00;100255.59;7395323;19;20015;-65
2024/01/24 07:06:38;;;;;;;1.45;0.57;;;;;;;10.12;100.00;100294.84;7395867;19;20014;-67
2024/01/24 07:09:06;;;;;;;2.78;1.92;;;;;;;10.09;100.00;100397.19;7394943;19;20074;-67
2024/01/24 07:11:35;;;;;;;2.05;0.60;;;;;;;10.04;100.00;100420.03;7397286;19;20091;-67
2024/01/24 07:14:06;;;;;;;2.47;1.77;;;;;;;9.90;100.00;100371.41;7394956;19;20477;-68
2024/01/24 07:16:34;;;;;;;3.50;1.00;;;;;;;9.75;100.00;100369.19;7396659;19;20018;-68
2024/01/24 07:19:03;;;;;;;2.88;1.00;;;;;;;9.55;100.00;100367.88;7396937;19;20010;-68
2024/01/24 07:21:39;;;;;;;5.50;1.35;;;;;;;9.39;100.00;100367.41;7398059;19;20030;-68
2024/01/24 07:24:08;;;;;;;6.90;1.33;;;;;;;9.24;100.00;100367.75;7394707;19;20014;-73
2024/01/24 07:26:36;;;;;;;7.60;2.00;;;;;;;9.16;100.00;100361.81;7395014;19;20014;-67
2024/01/24 07:29:07;;;;;;;8.93;1.48;;;;;;;9.06;100.00;100358.53;7395540;19;20481;-67
2024/01/24 07:31:36;;;;;;;9.05;2.03;;;;;;;8.94;100.00;100344.81;7395955;19;20485;-67
2024/01/24 07:34:04;;;;;;;8.95;1.77;;;;;;;8.84;100.00;100332.81;7394657;19;20010;-67
2024/01/24 07:36:33;;;;;;;6.32;1.92;;;;;;;8.77;100.00;100321.63;7395920;19;20028;-67
2024/01/24 07:38:58;;;;;;;7.13;1.20;;;;;;;8.72;100.00;100322.63;7396231;19;20475;-67
2024/01/24 07:41:27;;;;;;;3.78;1.05;;;;;;;8.69;100.00;100333.16;7396473;19;20009;-67
2024/01/24 07:43:55;;;;;;;11.10;1.42;;;;;;;8.67;100.00;100340.16;7395363;19;20031;-67
2024/01/24 07:46:27;;;;;;;8.27;1.25;;;;;;;8.65;100.00;100337.59;7396008;19;20014;-67
2024/01/24 07:48:56;;;;;;;11.52;1.88;;;;;;;8.64;100.00;100315.81;7397063;19;20032;-68
2024/01/24 07:51:24;;;;;;;9.32;1.60;;;;;;;8.65;100.00;100324.50;7394228;19;20011;-67
2024/01/24 07:53:52;;;;;;;6.50;1.45;;;;;;;8.67;100.00;100322.72;7395162;19;20031;-66
2024/01/24 07:56:21;;;;;;;6.97;1.40;;;;;;;8.69;100.00;100330.53;7395766;19;20501;-67
2024/01/24 07:58:50;;;;;;;7.90;1.38;;;;;;;8.69;100.00;100328.78;7394123;19;20036;-66
2024/01/24 08:01:19;;;;;;;6.63;1.15;;;;;;;8.72;100.00;100333.06;7394155;19;20011;-67
2024/01/24 08:03:50;;;;;;;6.75;1.25;;;;;;;8.71;100.00;100311.31;7394887;19;20018;-67
2024/01/24 08:06:19;;;;;;;7.15;1.30;;;;;;;8.72;100.00;100333.97;7393938;19;20414;-67
2024/01/24 08:08:47;;;;;;;6.38;1.33;;;;;;;8.74;100.00;100324.31;7395412;19;20082;-67
2024/01/24 08:11:24;;;;;;;6.85;1.35;;;;;;;8.74;100.00;100339.16;7393871;19;20011;-67
2024/01/24 08:13:50;;;;;;;4.13;1.48;;;;;;;8.77;100.00;100323.38;7393873;19;20082;-67
2024/01/24 08:16:21;;;;;;;6.80;2.20;;;;;;;8.78;100.00;100330.34;7394957;19;20015;-67
2024/01/24 08:18:53;;;;;;;7.57;1.92;;;;;;;8.81;100.00;100338.13;7393841;19;20011;-67
2024/01/24 08:21:22;;;;;;;7.63;1.30;;;;;;;8.80;100.00;100331.19;7395129;19;20490;-67
2024/01/24 08:23:50;;;;;;;7.18;1.80;;;;;;;8.87;100.00;100340.63;7393431;19;20045;-67
2024/01/24 08:26:19;;;;;;;6.53;1.52;;;;;;;8.89;100.00;100336.19;7394071;19;20483;-67
2024/01/24 08:28:47;;;;;;;7.78;1.90;;;;;;;8.93;100.00;100319.56;7393131;19;20488;-67
2024/01/24 08:31:16;;;;;;;7.90;1.55;;;;;;;8.99;100.00;100334.25;7394852;19;20018;-67
2024/01/24 08:33:45;;;;;;;8.50;1.67;;;;;;;9.04;100.00;100335.00;7392956;19;20021;-67
2024/01/24 08:36:16;;;;;;;6.70;1.20;;;;;;;9.06;100.00;100345.44;7394567;19;20058;-67
2024/01/24 08:38:44;;;;;;;6.13;1.73;;;;;;;9.11;100.00;100341.84;7394723;19;20518;-67
2024/01/24 08:41:13;;;;;;;3.40;1.10;;;;;;;9.15;100.00;100383.63;7395184;19;20027;-67
2024/01/24 08:43:41;;;;;;;8.02;2.13;;;;;;;9.19;100.00;100391.41;7393167;19;20385;-67
2024/01/24 08:46:10;;;;;;;5.85;1.17;;;;;;;9.26;100.00;100393.00;7392249;19;20032;-67
2024/01/24 08:48:38;;;;;;;5.80;1.58;;;;;;;9.34;100.00;100373.63;7393613;19;20421;-67
2024/01/24 08:51:07;;;;;;;7.25;1.27;;;;;;;9.40;100.00;100394.44;7394068;19;20022;-68
2024/01/24 08:53:39;;;;;;;7.72;1.27;;;;;;;9.45;100.00;100403.03;7392466;19;20019;-67
2024/01/24 08:56:10;;;;;;;6.03;1.65;;;;;;;9.49;100.00;100389.00;7394199;19;20031;-67
2024/01/24 08:58:39;;;;;;;6.95;1.27;;;;;;;9.52;100.00;100396.78;7394959;19;20019;-67
2024/01/24 09:01:07;;;;;;;3.33;1.10;;;;;;;9.60;100.00;100384.38;7394094;19;20082;-68
2024/01/24 09:03:36;;;;;;;5.07;1.05;;;;;;;9.64;100.00;100392.16;7394044;19;20536;-68
2024/01/24 09:06:05;;;;;;;7.28;1.88;;;;;;;9.66;100.00;100393.00;7401645;19;20014;-67
2024/01/24 09:08:33;;;;;;;10.82;1.70;;;;;;;9.69;100.00;100416.47;7401405;19;20495;-67
2024/01/24 09:11:04;;;;;;;7.78;1.20;;;;;;;9.72;100.00;100400.72;7398204;19;20086;-69
2024/01/24 09:13:33;;;;;;;7.40;1.42;;;;;;;9.76;100.00;100412.81;7398679;19;20018;-67
2024/01/24 09:16:01;;;;;;;10.07;1.77;;;;;;;9.82;100.00;100389.09;7398212;19;20508;-67
2024/01/24 09:18:30;;;;;;;8.38;1.85;;;;;;;9.86;100.00;100379.41;7401126;19;20011;-67
2024/01/24 09:20:58;;;;;;;5.22;1.35;;;;;;;9.89;96.58;100389.81;7401010;19;20033;-68
2024/01/24 09:23:27;;;;;;;7.50;1.60;;;;;;;9.93;95.37;100415.03;7397476;19;20395;-67
2024/01/24 09:25:55;;;;;;;6.00;1.58;;;;;;;9.97;94.51;100434.16;7401653;19;20111;-67
2024/01/24 09:28:26;;;;;;;10.57;2.05;;;;;;;10.01;91.20;100468.13;7397760;19;20343;-67
2024/01/24 09:30:55;;;;;;;7.93;2.03;;;;;;;10.07;92.04;100454.00;7400218;19;20016;-67
2024/01/24 09:33:23;;;;;;;8.43;2.30;;;;;;;10.09;89.19;100452.22;7398944;19;20010;-67
2024/01/24 09:35:51;;;;;;;11.85;2.92;;;;;;;10.09;87.08;100496.78;7400606;19;20019;-68
2024/01/24 09:38:20;;;;;;;12.32;2.35;;;;;;;10.03;84.09;100479.41;7400406;19;20014;-68
2024/01/24 09:40:49;;;;;;;10.45;2.83;;;;;;;10.01;87.44;100443.66;7399878;19;20011;-68
2024/01/24 09:43:19;;;;;;;10.63;2.40;;;;;;;9.95;88.64;100453.41;7399152;19;20070;-68
2024/01/24 09:45:51;;;;;;;13.48;2.35;;;;;;;9.90;84.64;100478.84;7399832;19;20018;-67
2024/01/24 09:48:18;;;;;;;9.73;1.95;;;;;;;9.91;87.17;100470.09;7397397;19;20042;-68
2024/01/24 09:50:47;;;;;;;8.25;1.80;;;;;;;9.91;84.71;100488.44;7399528;19;20463;-67
2024/01/24 09:53:19;;;;;;;14.45;3.05;;;;;;;9.93;86.68;100473.56;7398494;19;20028;-68
2024/01/24 09:55:55;;;;;;;9.50;2.03;;;;;;;9.93;83.25;100478.81;7400582;19;20011;-67
2024/01/24 09:58:23;;;;;;;11.57;2.20;;;;;;;9.97;83.64;100457.75;7399573;19;20512;-67
2024/01/24 10:00:55;;;;;;;13.57;3.13;;;;;;;10.01;83.01;100477.75;7396951;19;20023;-68
2024/01/24 10:03:25;;;;;;;9.93;2.63;;;;;;;10.07;85.60;100475.84;7396246;19;20015;-67
2024/01/24 10:05:55;;;;;;;12.45;2.42;;;;;;;10.10;80.51;100495.88;7397064;19;20031;-67
2024/01/24 10:08:24;;;;;;;15.80;2.58;;;;;;;10.14;80.22;100513.25;7396924;19;20014;-67
2024/01/24 10:10:53;;;;;;;17.85;2.65;;;;;;;10.18;81.34;100490.47;7398456;19;20045;-67
2024/01/24 10:13:21;;;;;;;12.10;2.35;;;;;;;10.20;82.82;100457.22;7397854;19;20035;-67
2024/01/24 10:15:49;;;;;;;10.70;2.80;;;;;;;10.20;81.25;100489.53;7397655;19;20498;-67
2024/01/24 10:18:23;;;;;;;9.43;2.35;;;;;;;10.19;78.50;100472.06;7398544;19;20014;-67
2024/01/24 10:20:51;;;;;;;8.25;1.80;;;;;;;10.22;84.59;100450.16;7398947;19;20006;-68
2024/01/24 10:23:26;;;;;;;17.90;3.00;;;;;;;10.26;77.55;100510.34;7396323;19;20014;-67
2024/01/24 10:25:55;;;;;;;19.52;3.08;;;;;;;10.30;78.78;100476.16;7398109;19;20014;-68
2024/01/24 10:28:24;;;;;;;14.07;2.47;;;;;;;10.30;76.95;100448.22;7395397;19;20375;-67
2024/01/24 10:30:52;;;;;;;12.57;2.92;;;;;;;10.30;75.54;100482.31;7397623;19;20105;-66
2024/01/24 10:33:23;;;;;;;14.30;2.50;;;;;;;10.34;76.73;100446.38;7396832;19;20031;-67
2024/01/24 10:35:52;;;;;;;15.55;2.45;;;;;;;10.39;75.92;100444.53;7397342;19;20013;-67
2024/01/24 10:38:24;;;;;;;17.25;3.40;;;;;;;10.48;76.01;100444.28;7395592;19;20014;-67
2024/01/24 10:40:59;;;;;;;14.27;3.42;;;;;;;10.56;78.12;100446.69;7396049;19;20010;-67
2024/01/24 10:43:29;;;;;;;13.63;3.17;;;;;;;10.61;74.22;100475.44;7397152;19;20015;-67
2024/01/24 10:45:59;;;;;;;15.00;3.03;;;;;;;10.66;74.06;100470.94;7397555;19;20436;-67
2024/01/24 10:48:32;;;;;;;20.85;4.00;;;;;;;10.70;73.17;100490.94;7395777;19;20010;-67
2024/01/24 10:51:00;;;;;;;17.20;3.03;;;;;;;10.76;72.53;100472.41;7396273;19;20058;-67
2024/01/24 10:53:32;;;;;;;10.32;2.83;;;;;;;10.83;72.09;100466.09;7394821;19;20449;-67
2024/01/24 10:56:03;;;;;;;17.95;3.03;;;;;;;10.91;73.83;100489.50;7395485;19;20359;-67
2024/01/24 10:58:34;;;;;;;17.88;3.30;;;;;;;10.96;72.72;100492.00;7397474;19;20039;-67
2024/01/24 11:01:02;;;;;;;18.05;2.97;;;;;;;10.98;72.35;100513.81;7397616;19;20014;-67
2024/01/24 11:03:34;;;;;;;12.82;2.70;;;;;;;11.01;69.79;100501.47;7395064;19;20074;-67
2024/01/24 11:06:05;;;;;;;14.13;2.95;;;;;;;11.07;71.20;100500.47;7394942;19;20083;-66
2024/01/24 11:08:44;;;;;;;17.65;3.63;;;;;;;11.11;72.57;100474.94;7395057;19;20368;-68
2024/01/24 11:11:16;;;;;;;17.55;3.70;;;;;;;11.18;69.16;100493.09;7397625;19;20014;-67
2024/01/24 11:13:45;;;;;;;15.27;2.92;;;;;;;11.22;67.71;100539.41;7394345;19;20024;-68
2024/01/24 11:16:33;;;;;;;18.80;2.90;;;;;;;11.25;67.40;100483.31;7396474;19;20018;-67
2024/01/24 11:19:24;;;;;;;14.98;2.80;;;;;;;11.28;66.65;100534.88;7398066;19;20074;-67
2024/01/24 11:21:54;;;;;;;14.35;2.40;;;;;;;11.28;66.96;100511.25;7397369;19;20030;-67
2024/01/24 11:24:56;;;;;;;17.98;2.92;;;;;;;11.28;66.77;100498.13;7393505;19;20489;-67
2024/01/24 11:27:33;;;;;;;14.13;2.75;;;;;;;11.25;65.74;100528.81;7392454;19;20011;-67
2024/01/24 11:30:03;;;;;;;14.45;2.60;;;;;;;11.24;67.56;100486.84;7395598;19;20365;-67
2024/01/24 11:33:04;;;;;;;14.73;3.35;;;;;;;11.27;66.23;100539.25;7396382;19;20018;-66
2024/01/24 11:35:40;;;;;;;13.65;2.33;;;;;;;11.27;65.51;100564.66;7394854;19;20015;-66
2024/01/24 11:38:09;;;;;;;12.48;3.35;;;;;;;11.25;69.24;100494.66;7394828;19;20003;-67